CheckWX is a tool to help pilots better visualize weather data.  It is not intended as a substitute for an official pre-flight weather briefing.

04:28:15 UTC

KAVP TAF
Wilkes Barre Scranton International Airport Airport
Wilkes-Barre/Scranton, Pennsylvania, USA
KAVP 100542Z 1006/1106 00000KT P6SM FEW230 FM101400 05004KT P6SM BKN040 FM101600 05005KT P6SM BKN028 FM101900 05007KT 4SM RA OVC013 FM110100 VRB04KT 3SM BR BKN008

Jul-10@
06:00 UTC

Jul-10 @ 06:00 UTC

Jul-10@
14:00 UTC

Jul-10 @ 14:00 UTC

TAF KAVP 100542Z 1006/1106 00000KT P6SM FEW230

Expired

Cloud Levels
  • Few at 23,000' AGL

Jul-10@
14:00 UTC

Jul-10 @ 14:00 UTC

Jul-10@
16:00 UTC

Jul-10 @ 16:00 UTC

FM101400 05004KT P6SM BKN040

Expired

Wind
  • 050° at 4 KTS
Cloud Levels
  • Broken at 4,000' AGL

Jul-10@
16:00 UTC

Jul-10 @ 16:00 UTC

Jul-10@
19:00 UTC

Jul-10 @ 19:00 UTC

FM101600 05005KT P6SM BKN028

Expired

Wind
  • 050° at 5 KTS
Cloud Levels
  • Broken at 2,800' AGL

Jul-10@
19:00 UTC

Jul-10 @ 19:00 UTC

Jul-11@
01:00 UTC

Jul-11 @ 01:00 UTC

FM101900 05007KT 4SM RA OVC013

Expired

Wind
  • 050° at 7 KTS
Conditions
Rain
Cloud Levels
  • Overcast at 1,300' AGL

Jul-11@
01:00 UTC

Jul-11 @ 01:00 UTC

Jul-11@
06:00 UTC

Jul-11 @ 06:00 UTC

FM110100 VRB04KT 3SM BR BKN008

From

From Standard forecast or significant change

Wind
  • Variable at 4 KTS
Conditions
Mist
Cloud Levels
  • Broken at 800' AGL